Crown Of Scandinavia — OXRA6 — position and weather

sailwx.info

Track history (hours):
 
Tides and Currents Weather Stations Pressure Air Temp Water Temp Dewpoint Dewpoint Depression Visibility Wind Speed Wind Dir Waves Ship Positions

Crown Of Scandinavia

Last reported at 2018-Sep-24 20:30 UTC. Time now 2018-Sep-24 21:01 UTC.
Position N 57°03' E 011°43'.

Length 171 m; draft 6.3 m.

Type: Ship. MMSI: 219592000.

Date/timePositionNaut miles runAvg speedWind from/ knotsBaromVisibWave heightAir tempDewpointWater temp
2018-Sep-24 20:30N 57°03' E 011°43'817.5
2018-Sep-24 20:03N 56°56' E 011°49'4716.0
2018-Sep-24 17:06N 56°13' E 012°24'116.2
2018-Sep-24 17:03N 56°12' E 012°24'116.4
2018-Sep-24 17:00N 56°12' E 012°25'815.9
2018-Sep-24 16:30N 56°06' E 012°35'714.6
2018-Sep-24 16:03N 56°00' E 012°41'114.1
2018-Sep-24 16:01N 55°59' E 012°41'714.0
2018-Sep-24 15:31N 55°53' E 012°45'714.5
2018-Sep-24 15:04N 55°46' E 012°42'115.0
2018-Sep-24 15:00N 55°46' E 012°41'5 8.4
2018-Sep-24 14:28N 55°42' E 012°36'0 0.0
2018-Sep-24 13:58N 55°42' E 012°36'0 0.0
2018-Sep-24 13:31N 55°42' E 012°36'0 0.0
2018-Sep-24 13:01N 55°42' E 012°36'0 0.0
2018-Sep-24 12:58N 55°42' E 012°36'0 0.0
2018-Sep-24 12:31N 55°42' E 012°36'0 0.0
2018-Sep-24 12:01N 55°42' E 012°36'0 0.0
2018-Sep-24 11:58N 55°42' E 012°36'0 0.0
2018-Sep-24 11:28N 55°42' E 012°36'0 0.0
2018-Sep-24 11:01N 55°42' E 012°36'0 0.0
2018-Sep-24 10:58N 55°42' E 012°36'0 0.0
2018-Sep-24 10:31N 55°42' E 012°36'0 0.0
2018-Sep-24 10:01N 55°42' E 012°36'0 0.0
2018-Sep-24 09:58N 55°42' E 012°36'0 0.0
2018-Sep-24 09:28N 55°42' E 012°36'0 0.0
2018-Sep-24 09:01N 55°42' E 012°36'0 0.0
2018-Sep-24 08:58N 55°42' E 012°36'0 0.0
2018-Sep-24 08:28N 55°42' E 012°36'0 0.0
2018-Sep-24 08:04N 55°42' E 012°36'0 0.0
2018-Sep-24 07:58N 55°42' E 012°36'1 1.9
2018-Sep-24 07:30N 55°43' E 012°37'612.5
2018-Sep-24 07:03N 55°47' E 012°42'116.6
2018-Sep-24 07:00N 55°48' E 012°42'816.2
2018-Sep-24 06:30N 55°56' E 012°39'817.3
2018-Sep-24 06:03N 56°04' E 012°37'117.9
2018-Sep-24 06:00N 56°05' E 012°36'816.8
2018-Sep-24 05:30N 56°11' E 012°27'716.0
2018-Sep-24 05:03N 56°18' E 012°23'5716.2
2018-Sep-24 01:32N 57°12' E 011°53'115.9
2018-Sep-24 01:27N 57°14' E 011°52'616.1
2018-Sep-24 01:03N 57°19' E 011°45'116.0
2018-Sep-24 01:00N 57°20' E 011°45'815.9
2018-Sep-24 00:30N 57°26' E 011°37'715.6
2018-Sep-24 00:03N 57°32' E 011°29'115.8
2018-Sep-24 00:00N 57°33' E 011°28'816.3
2018-Sep-23 23:30N 57°39' E 011°18'716.3
2018-Sep-23 23:03N 57°45' E 011°10'116.4
2018-Sep-23 23:00N 57°46' E 011°09'816.5
2018-Sep-23 22:30N 57°53' E 011°03'716.3
2018-Sep-23 22:03N 58°00' E 010°58'116.4
2018-Sep-23 22:00N 58°01' E 010°58'816.1
2018-Sep-23 21:30N 58°08' E 010°52'716.1
2018-Sep-23 21:03N 58°15' E 010°47'115.7
2018-Sep-23 21:00N 58°16' E 010°47'815.5
2018-Sep-23 20:30N 58°23' E 010°41'715.1
2018-Sep-23 20:03N 58°30' E 010°39'114.9
2018-Sep-23 20:00N 58°30' E 010°38'815.1
2018-Sep-23 19:30N 58°38' E 010°36'715.5
2018-Sep-23 19:03N 58°45' E 010°35'116.0
2018-Sep-23 19:00N 58°46' E 010°35'816.4
2018-Sep-23 18:31N 58°54' E 010°36'716.6
2018-Sep-23 18:03N 59°01' E 010°37'117.3
2018-Sep-23 18:00N 59°02' E 010°37'917.8
2018-Sep-23 17:30N 59°11' E 010°38'818.0
2018-Sep-23 17:03N 59°19' E 010°36'118.1
2018-Sep-23 17:00N 59°20' E 010°35'917.8
2018-Sep-23 16:30N 59°29' E 010°34'816.9
2018-Sep-23 16:03N 59°36' E 010°38'116.7
2018-Sep-23 16:00N 59°37' E 010°38'612.9
2018-Sep-23 15:30N 59°43' E 010°34'716.1
2018-Sep-23 15:04N 59°50' E 010°35'116.6
2018-Sep-23 15:00N 59°51' E 010°36'510.6
2018-Sep-23 14:30N 59°54' E 010°45'0 0.0
2018-Sep-23 13:30N 59°54' E 010°45'0 0.0
2018-Sep-23 13:03N 59°54' E 010°45'0 0.0
2018-Sep-23 13:00N 59°54' E 010°45'0 0.0
2018-Sep-23 12:30N 59°54' E 010°45'0 0.0
2018-Sep-23 12:04N 59°54' E 010°45'0 0.0
2018-Sep-23 12:01N 59°54' E 010°45'0 0.0
2018-Sep-23 11:30N 59°54' E 010°45'0 0.0
2018-Sep-23 11:03N 59°54' E 010°45'0 0.0
2018-Sep-23 11:00N 59°54' E 010°45'0 0.0
2018-Sep-23 10:31N 59°54' E 010°45'0 0.0
2018-Sep-23 10:03N 59°54' E 010°45'0 0.0
2018-Sep-23 10:00N 59°54' E 010°45'0 0.0
2018-Sep-23 09:30N 59°54' E 010°45'0 0.0
2018-Sep-23 09:03N 59°54' E 010°45'0 0.0
2018-Sep-23 09:00N 59°54' E 010°45'0 0.5
2018-Sep-23 08:30N 59°54' E 010°44'613.8
2018-Sep-23 08:03N 59°50' E 010°35'116.9
2018-Sep-23 08:00N 59°49' E 010°35'815.6
2018-Sep-23 07:30N 59°42' E 010°36'714.4
2018-Sep-23 07:03N 59°35' E 010°38'116.6
2018-Sep-23 07:00N 59°34' E 010°38'816.7
2018-Sep-23 06:31N 59°26' E 010°34'716.1
2018-Sep-23 06:03N 59°19' E 010°37'116.1
2018-Sep-23 06:00N 59°18' E 010°37'816.2
2018-Sep-23 05:30N 59°10' E 010°39'715.9
2018-Sep-23 05:04N 59°03' E 010°41'116.3
2018-Sep-23 05:01N 59°02' E 010°41'816.3
2018-Sep-23 04:31N 58°54' E 010°43'816.6
2018-Sep-23 04:03N 58°47' E 010°45'117.7
2018-Sep-23 04:00N 58°46' E 010°45'917.8
2018-Sep-23 03:30N 58°37' E 010°49'817.7
2018-Sep-23 03:04N 58°30' E 010°54'118.4
2018-Sep-23 03:00N 58°29' E 010°55'918.2
2018-Sep-23 02:30N 58°20' E 010°59'817.9
2018-Sep-23 02:03N 58°13' E 011°04'117.8
2018-Sep-23 02:00N 58°12' E 011°04'917.9
2018-Sep-23 01:31N 58°03' E 011°08'817.1
2018-Sep-23 01:03N 57°56' E 011°12'116.8
2018-Sep-23 01:00N 57°55' E 011°13'816.3
2018-Sep-23 00:30N 57°47' E 011°17'716.4
2018-Sep-23 00:04N 57°40' E 011°21'116.7
2018-Sep-23 00:01N 57°39' E 011°22'816.9
2018-Sep-22 23:30N 57°31' E 011°26'817.1
2018-Sep-22 23:04N 57°24' E 011°31'117.3
2018-Sep-22 23:01N 57°23' E 011°31'917.5
2018-Sep-22 22:30N 57°15' E 011°36'817.8
2018-Sep-22 22:04N 57°07' E 011°41'117.9
2018-Sep-22 22:01N 57°06' E 011°42'6115.8
2018-Sep-22 18:10N 56°10' E 012°26'215.2
2018-Sep-22 18:03N 56°09' E 012°28'115.5
2018-Sep-22 18:00N 56°09' E 012°29'815.7
2018-Sep-22 17:31N 56°03' E 012°39'714.7
2018-Sep-22 17:03N 55°57' E 012°43'117.3
2018-Sep-22 17:00N 55°56' E 012°43'815.4
2018-Sep-22 16:31N 55°49' E 012°43'614.4
2018-Sep-22 16:04N 55°43' E 012°38'0 8.5
2018-Sep-22 16:00N 55°43' E 012°37'1 1.8
2018-Sep-22 15:30N 55°42' E 012°36'0 0.0
2018-Sep-22 15:02N 55°42' E 012°36'0 0.0
2018-Sep-22 14:59N 55°42' E 012°36'0 0.5
2018-Sep-22 14:30N 55°42' E 012°36'510.5
2018-Sep-22 14:00N 55°47' E 012°42'816.3
2018-Sep-22 13:30N 55°55' E 012°39'919.9
2018-Sep-22 13:03N 56°04' E 012°38'121.1
2018-Sep-22 13:00N 56°04' E 012°37'1019.3
2018-Sep-22 12:30N 56°12' E 012°26'6219.2
2018-Sep-22 09:16N 57°11' E 011°54'419.6
2018-Sep-22 09:03N 57°15' E 011°51'119.6
2018-Sep-22 09:00N 57°16' E 011°50'1019.7
2018-Sep-22 08:30N 57°24' E 011°39'919.6
2018-Sep-22 08:03N 57°32' E 011°30'119.5
2018-Sep-22 08:00N 57°32' E 011°29'1019.3
2018-Sep-22 07:30N 57°41' E 011°20'919.4
2018-Sep-22 07:03N 57°48' E 011°11'119.2
2018-Sep-22 07:00N 57°49' E 011°10'918.1
2018-Sep-22 06:30N 57°56' E 010°60'817.0
2018-Sep-22 06:03N 58°02' E 010°50'117.0
2018-Sep-22 06:00N 58°02' E 010°49'816.9
2018-Sep-22 05:30N 58°08' E 010°38'715.3
2018-Sep-22 05:03N 58°13' E 010°29'115.3
2018-Sep-22 05:00N 58°14' E 010°28'714.2
2018-Sep-22 04:29N 58°20' E 010°19'612.8
2018-Sep-22 04:02N 58°25' E 010°15'112.4
2018-Sep-22 03:59N 58°25' E 010°15'611.2
2018-Sep-22 03:30N 58°31' E 010°14'511.2
2018-Sep-22 03:03N 58°36' E 010°14'111.3
2018-Sep-22 03:00N 58°36' E 010°14'510.3
2018-Sep-22 02:31N 58°42' E 010°14'510.6
2018-Sep-22 02:03N 58°46' E 010°15'110.0
2018-Sep-22 02:00N 58°47' E 010°15'5 9.3
2018-Sep-22 01:30N 58°51' E 010°18'4 8.0
2018-Sep-22 01:04N 58°54' E 010°23'0 8.1
2018-Sep-22 01:00N 58°54' E 010°24'4 8.3
2018-Sep-22 00:30N 58°57' E 010°29'4 8.0
2018-Sep-22 00:03N 58°60' E 010°33'0 9.3
2018-Sep-22 00:00N 59°00' E 010°34'4 7.4
2018-Sep-21 23:30N 59°04' E 010°37'4 8.5
2018-Sep-21 23:03N 59°08' E 010°38'0 8.8
2018-Sep-21 23:00N 59°08' E 010°38'4 7.0
2018-Sep-21 22:30N 59°11' E 010°38'4 8.5
2018-Sep-21 22:03N 59°15' E 010°37'0 9.2
2018-Sep-21 22:00N 59°16' E 010°36'4 7.7
2018-Sep-21 21:30N 59°19' E 010°35'3 6.0
2018-Sep-21 21:03N 59°22' E 010°34'0 5.8
2018-Sep-21 21:00N 59°22' E 010°34'3 6.1
2018-Sep-21 20:30N 59°25' E 010°33'2 5.2
2018-Sep-21 20:04N 59°28' E 010°33'0 5.0
2018-Sep-21 20:00N 59°28' E 010°33'2 4.8
2018-Sep-21 19:30N 59°30' E 010°35'2 4.6
2018-Sep-21 19:03N 59°32' E 010°36'0 4.9
2018-Sep-21 19:00N 59°32' E 010°36'3 6.1
2018-Sep-21 18:30N 59°35' E 010°38'2 5.1
2018-Sep-21 18:03N 59°38' E 010°38'0 5.0
2018-Sep-21 18:00N 59°38' E 010°37'4 7.7
2018-Sep-21 17:30N 59°42' E 010°36'3 7.8
2018-Sep-21 17:04N 59°45' E 010°33'0 3.4
2018-Sep-21 17:01N 59°45' E 010°33'2 3.7
2018-Sep-21 16:30N 59°47' E 010°34'2 4.3
2018-Sep-21 16:04N 59°49' E 010°34'0 4.2
2018-Sep-21 16:00N 59°49' E 010°34'3 5.6
2018-Sep-21 15:30N 59°51' E 010°37'4 8.9
2018-Sep-21 15:03N 59°54' E 010°43'111.3
2018-Sep-21 15:01N 59°54' E 010°44'0 0.7
2018-Sep-21 14:28N 59°54' E 010°45'0 0.0
2018-Sep-21 13:28N 59°54' E 010°45'0 0.0
2018-Sep-21 13:01N 59°54' E 010°45'0 0.0
2018-Sep-21 12:58N 59°54' E 010°45'0 0.0
2018-Sep-21 12:28N 59°54' E 010°45'0 0.0
2018-Sep-21 12:01N 59°54' E 010°45'0 0.0
2018-Sep-21 11:58N 59°54' E 010°45'0 0.0
2018-Sep-21 11:28N 59°54' E 010°45'0 0.0
2018-Sep-21 11:01N 59°54' E 010°45'0 0.0
2018-Sep-21 10:58N 59°54' E 010°45'0 0.0
2018-Sep-21 10:28N 59°54' E 010°45'0 0.0
2018-Sep-21 10:01N 59°54' E 010°45'0 0.0
2018-Sep-21 09:58N 59°54' E 010°45'0 0.0
2018-Sep-21 09:28N 59°54' E 010°45'0 0.0
2018-Sep-21 09:01N 59°54' E 010°45'0 0.0
2018-Sep-21 08:58N 59°54' E 010°45'0 0.0
2018-Sep-21 08:28N 59°54' E 010°45'0 0.0
2018-Sep-21 08:01N 59°54' E 010°45'0 0.0
2018-Sep-21 07:58N 59°54' E 010°45'1 1.2
2018-Sep-21 07:30N 59°54' E 010°44'613.4
2018-Sep-21 07:03N 59°50' E 010°36'115.1
2018-Sep-21 07:00N 59°49' E 010°35'714.9
2018-Sep-21 06:31N 59°42' E 010°36'614.3
2018-Sep-21 06:03N 59°35' E 010°38'115.8
2018-Sep-21 06:01N 59°34' E 010°38'815.8
2018-Sep-21 05:30N 59°27' E 010°34'716.1
2018-Sep-21 05:03N 59°20' E 010°36'116.0
2018-Sep-21 05:00N 59°19' E 010°36'816.3
2018-Sep-21 04:31N 59°11' E 010°39'715.9
2018-Sep-21 04:04N 59°04' E 010°40'115.7
2018-Sep-21 04:01N 59°03' E 010°41'815.9
2018-Sep-21 03:31N 58°55' E 010°42'716.1
2018-Sep-21 03:04N 58°48' E 010°44'116.1
2018-Sep-21 03:01N 58°47' E 010°44'816.2
2018-Sep-21 02:30N 58°39' E 010°46'716.4
2018-Sep-21 02:04N 58°32' E 010°50'116.5
2018-Sep-21 02:00N 58°31' E 010°51'817.0
2018-Sep-21 01:31N 58°23' E 010°56'816.9
2018-Sep-21 01:04N 58°16' E 010°60'116.7
2018-Sep-21 01:00N 58°15' E 011°00'816.6
2018-Sep-21 00:31N 58°07' E 011°05'816.9
2018-Sep-21 00:04N 57°60' E 011°09'116.8
2018-Sep-21 00:00N 57°59' E 011°09'816.5
2018-Sep-20 23:30N 57°51' E 011°14'716.2
2018-Sep-20 23:04N 57°44' E 011°18'116.1
2018-Sep-20 23:01N 57°43' E 011°19'816.3
2018-Sep-20 22:31N 57°36' E 011°24'716.3
2018-Sep-20 22:04N 57°29' E 011°28'116.5
2018-Sep-20 22:01N 57°28' E 011°29'816.3
2018-Sep-20 21:31N 57°20' E 011°33'716.6
2018-Sep-20 21:03N 57°13' E 011°37'116.7
2018-Sep-20 21:01N 57°12' E 011°38'816.5
2018-Sep-20 20:31N 57°05' E 011°43'816.3
2018-Sep-20 20:00N 56°57' E 011°50'5015.9
2018-Sep-20 16:51N 56°11' E 012°28'515.8
2018-Sep-20 16:30N 56°07' E 012°33'715.1
2018-Sep-20 16:04N 56°01' E 012°40'115.2
2018-Sep-20 16:01N 56°01' E 012°41'815.3
2018-Sep-20 15:31N 55°54' E 012°46'715.7
2018-Sep-20 15:03N 55°47' E 012°42'115.1
2018-Sep-20 15:01N 55°46' E 012°42'5 5.2
2018-Sep-20 14:01N 55°42' E 012°36'0 0.0
2018-Sep-20 13:52N 55°42' E 012°36'0 0.0
2018-Sep-20 13:28N 55°42' E 012°36'0 0.0
2018-Sep-20 12:58N 55°42' E 012°36'0 0.0
2018-Sep-20 12:16N 55°42' E 012°36'0 0.0
2018-Sep-20 12:01N 55°42' E 012°36'0 0.0
2018-Sep-20 11:55N 55°42' E 012°36'0 0.0
2018-Sep-20 11:28N 55°42' E 012°36'0 0.0
2018-Sep-20 10:52N 55°42' E 012°36'0 0.0
2018-Sep-20 10:28N 55°42' E 012°36'0 0.0
2018-Sep-20 10:01N 55°42' E 012°36'0 0.0
2018-Sep-20 09:55N 55°42' E 012°36'0 0.0
2018-Sep-20 09:25N 55°42' E 012°36'0 0.0
2018-Sep-20 09:01N 55°42' E 012°36'0 0.0
2018-Sep-20 08:58N 55°42' E 012°36'0 0.0
2018-Sep-20 08:28N 55°42' E 012°36'0 0.0
2018-Sep-20 08:01N 55°42' E 012°36'0 0.0
2018-Sep-20 07:49N 55°42' E 012°36'0 1.0
2018-Sep-20 07:30N 55°42' E 012°36'613.1
2018-Sep-20 07:03N 55°47' E 012°42'115.7
2018-Sep-20 07:00N 55°48' E 012°42'815.4
2018-Sep-20 06:31N 55°56' E 012°39'715.5
2018-Sep-20 06:04N 56°03' E 012°39'116.0
2018-Sep-20 06:00N 56°03' E 012°39'816.2
2018-Sep-20 05:31N 56°09' E 012°29'715.4
2018-Sep-20 05:03N 56°16' E 012°25'115.2
2018-Sep-20 04:59N 56°17' E 012°24'5716.7
2018-Sep-20 01:34N 57°12' E 011°54'317.9
2018-Sep-20 01:25N 57°14' E 011°52'617.7
2018-Sep-20 01:04N 57°20' E 011°47'117.6
2018-Sep-20 01:01N 57°20' E 011°46'918.1
2018-Sep-20 00:31N 57°28' E 011°38'817.6
2018-Sep-20 00:04N 57°36' E 011°32'117.7
2018-Sep-20 00:01N 57°36' E 011°32'917.5
2018-Sep-19 23:31N 57°45' E 011°26'817.1
2018-Sep-19 23:04N 57°52' E 011°21'116.8
2018-Sep-19 23:01N 57°53' E 011°20'816.0
2018-Sep-19 22:31N 57°60' E 011°14'715.6
2018-Sep-19 22:03N 58°06' E 011°08'116.0
2018-Sep-19 22:00N 58°07' E 011°08'815.5
2018-Sep-19 21:30N 58°14' E 011°02'714.9
2018-Sep-19 21:04N 58°20' E 010°58'114.9
2018-Sep-19 21:00N 58°21' E 010°58'714.6
2018-Sep-19 20:30N 58°28' E 010°54'714.6
2018-Sep-19 20:03N 58°35' E 010°51'114.6
2018-Sep-19 20:00N 58°35' E 010°50'715.0
2018-Sep-19 19:31N 58°43' E 010°46'715.5
2018-Sep-19 19:04N 58°49' E 010°43'115.7
2018-Sep-19 19:01N 58°50' E 010°43'815.7
2018-Sep-19 18:31N 58°58' E 010°41'715.6
2018-Sep-19 18:04N 59°05' E 010°40'115.9
2018-Sep-19 18:01N 59°06' E 010°40'816.1
2018-Sep-19 17:31N 59°14' E 010°38'716.1
2018-Sep-19 17:04N 59°21' E 010°35'116.2
2018-Sep-19 17:01N 59°22' E 010°35'815.8
2018-Sep-19 16:31N 59°29' E 010°34'716.1
2018-Sep-19 16:04N 59°36' E 010°38'116.3
2018-Sep-19 16:01N 59°37' E 010°38'713.7
2018-Sep-19 15:30N 59°44' E 010°33'715.3
2018-Sep-19 15:03N 59°51' E 010°35'115.9
2018-Sep-19 15:00N 59°51' E 010°36'5 5.2
2018-Sep-19 14:01N 59°54' E 010°45'0 0.0
2018-Sep-19 13:28N 59°54' E 010°45'0 0.0
2018-Sep-19 13:01N 59°54' E 010°45'0 0.0
2018-Sep-19 12:58N 59°54' E 010°45'0 0.0
2018-Sep-19 12:28N 59°54' E 010°45'0 0.0
2018-Sep-19 12:01N 59°54' E 010°45'0 0.0
2018-Sep-19 11:58N 59°54' E 010°45'0 0.0
2018-Sep-19 11:28N 59°54' E 010°45'0 0.0
2018-Sep-19 11:01N 59°54' E 010°45'0 0.0
2018-Sep-19 10:58N 59°54' E 010°45'0 0.0
2018-Sep-19 10:28N 59°54' E 010°45'0 0.0
2018-Sep-19 10:01N 59°54' E 010°45'0 0.0
2018-Sep-19 09:58N 59°54' E 010°45'0 0.0
2018-Sep-19 09:28N 59°54' E 010°45'0 0.0
2018-Sep-19 09:01N 59°54' E 010°45'0 0.0
2018-Sep-19 08:58N 59°54' E 010°45'0 0.0
2018-Sep-19 08:28N 59°54' E 010°45'0 0.0
2018-Sep-19 08:01N 59°54' E 010°45'0 0.0
2018-Sep-19 07:58N 59°54' E 010°45'0 0.9
2018-Sep-19 07:30N 59°54' E 010°44'612.8
2018-Sep-19 07:03N 59°50' E 010°36'114.6
2018-Sep-19 07:01N 59°49' E 010°35'714.1
2018-Sep-19 06:30N 59°42' E 010°36'613.6
2018-Sep-19 06:03N 59°36' E 010°38'116.5
2018-Sep-19 06:01N 59°35' E 010°38'816.1
2018-Sep-19 05:31N 59°28' E 010°34'715.9
2018-Sep-19 05:04N 59°21' E 010°36'116.9
2018-Sep-19 05:01N 59°20' E 010°36'816.6
2018-Sep-19 04:31N 59°12' E 010°39'716.0
2018-Sep-19 04:04N 59°04' E 010°41'115.5
2018-Sep-19 04:01N 59°04' E 010°41'815.5
2018-Sep-19 03:31N 58°56' E 010°42'715.1
2018-Sep-19 03:03N 58°49' E 010°44'114.8
2018-Sep-19 03:01N 58°48' E 010°44'714.9
2018-Sep-19 02:31N 58°41' E 010°47'715.7
2018-Sep-19 02:04N 58°35' E 010°51'115.7
2018-Sep-19 02:01N 58°34' E 010°52'816.2
2018-Sep-19 01:30N 58°26' E 010°57'716.0
2018-Sep-19 01:04N 58°19' E 011°01'116.0
2018-Sep-19 01:00N 58°18' E 011°01'815.8
2018-Sep-19 00:31N 58°11' E 011°05'715.8
2018-Sep-19 00:04N 58°04' E 011°08'115.6
2018-Sep-19 00:01N 58°03' E 011°09'815.5
2018-Sep-18 23:31N 57°56' E 011°14'715.9
2018-Sep-18 23:04N 57°49' E 011°18'115.5
2018-Sep-18 23:01N 57°48' E 011°18'815.4
2018-Sep-18 22:31N 57°41' E 011°23'715.1
2018-Sep-18 22:03N 57°34' E 011°25'115.4
2018-Sep-18 22:00N 57°34' E 011°25'815.4
2018-Sep-18 21:31N 57°26' E 011°29'715.7
2018-Sep-18 21:04N 57°20' E 011°33'115.7
2018-Sep-18 21:01N 57°19' E 011°34'816.3
2018-Sep-18 20:31N 57°11' E 011°38'716.7
2018-Sep-18 20:04N 57°04' E 011°43'116.7
2018-Sep-18 20:01N 57°03' E 011°44'816.6
2018-Sep-18 19:30N 56°56' E 011°51'816.4
2018-Sep-18 19:01N 56°49' E 011°59'116.7
2018-Sep-18 18:59N 56°49' E 011°59'916.5
2018-Sep-18 18:26N 56°40' E 012°05'616.1
2018-Sep-18 18:02N 56°34' E 012°10'016.2
2018-Sep-18 18:01N 56°34' E 012°11'816.5
2018-Sep-18 17:30N 56°26' E 012°17'816.5
2018-Sep-18 17:03N 56°19' E 012°22'117.0
2018-Sep-18 16:59N 56°18' E 012°22'817.2
2018-Sep-18 16:31N 56°11' E 012°28'918.9
2018-Sep-18 16:03N 56°04' E 012°38'118.3
2018-Sep-18 16:00N 56°04' E 012°39'817.1
2018-Sep-18 15:31N 55°55' E 012°44'817.0
2018-Sep-18 15:04N 55°48' E 012°43'116.9
2018-Sep-18 15:00N 55°47' E 012°42'6 6.3
2018-Sep-18 14:03N 55°42' E 012°36'0 0.0
2018-Sep-18 14:00N 55°42' E 012°36'0 0.0
2018-Sep-18 13:30N 55°42' E 012°36'0 0.0
2018-Sep-18 13:03N 55°42' E 012°36'0 0.0
2018-Sep-18 13:00N 55°42' E 012°36'0 0.7
2018-Sep-18 12:30N 55°42' E 012°36'613.7
2018-Sep-18 12:04N 55°47' E 012°42'115.9
2018-Sep-18 12:01N 55°48' E 012°43'510.2
2018-Sep-18 11:31N 55°53' E 012°44'511.4
2018-Sep-18 11:03N 55°48' E 012°45'117.2
2018-Sep-18 11:00N 55°47' E 012°44'713.6
2018-Sep-18 10:30N 55°42' E 012°36'0 0.1
2018-Sep-18 09:46N 55°42' E 012°36'0 0.0
2018-Sep-18 09:25N 55°42' E 012°36'0 0.0
2018-Sep-18 08:58N 55°42' E 012°36'0 0.0
2018-Sep-18 08:22N 55°42' E 012°36'0 0.0
2018-Sep-18 08:01N 55°42' E 012°36'0 0.0
2018-Sep-18 07:52N 55°42' E 012°36'0 0.8
2018-Sep-18 07:31N 55°42' E 012°36'612.5
2018-Sep-18 07:03N 55°47' E 012°42'115.6
2018-Sep-18 07:00N 55°48' E 012°42'815.0
2018-Sep-18 06:31N 55°55' E 012°39'715.4
2018-Sep-18 06:04N 56°02' E 012°39'114.7
2018-Sep-18 06:00N 56°03' E 012°39'815.4
2018-Sep-18 05:30N 56°08' E 012°29'715.5
2018-Sep-18 05:03N 56°15' E 012°25'115.5
2018-Sep-18 05:00N 56°16' E 012°25'815.7
2018-Sep-18 04:30N 56°23' E 012°21'715.2
2018-Sep-18 04:03N 56°30' E 012°17'116.5
2018-Sep-18 04:00N 56°30' E 012°16'816.5
2018-Sep-18 03:30N 56°38' E 012°12'816.5
2018-Sep-18 03:00N 56°46' E 012°08'816.5
2018-Sep-18 02:30N 56°54' E 012°06'816.4
2018-Sep-18 02:00N 57°02' E 011°59'1216.5
2018-Sep-18 01:17N 57°13' E 011°53'417.1
2018-Sep-18 01:03N 57°16' E 011°49'117.1
2018-Sep-18 01:00N 57°17' E 011°48'816.9
2018-Sep-18 00:30N 57°24' E 011°40'716.4
2018-Sep-18 00:03N 57°31' E 011°34'116.8
2018-Sep-18 00:00N 57°32' E 011°33'917.0
2018-Sep-17 23:31N 57°39' E 011°26'817.0
2018-Sep-17 23:03N 57°47' E 011°22'116.4
2018-Sep-17 23:00N 57°47' E 011°21'816.6
2018-Sep-17 22:30N 57°55' E 011°15'816.3
2018-Sep-17 22:03N 58°02' E 011°10'116.1
2018-Sep-17 22:00N 58°03' E 011°10'816.0
2018-Sep-17 21:30N 58°10' E 011°04'715.9
2018-Sep-17 21:03N 58°17' E 010°58'115.8
2018-Sep-17 21:00N 58°17' E 010°57'815.8
2018-Sep-17 20:29N 58°25' E 010°51'715.7
2018-Sep-17 20:03N 58°31' E 010°45'115.7
2018-Sep-17 20:00N 58°32' E 010°45'815.7
2018-Sep-17 19:30N 58°39' E 010°38'715.7
2018-Sep-17 19:03N 58°45' E 010°35'116.1
2018-Sep-17 19:00N 58°46' E 010°35'816.1
2018-Sep-17 18:30N 58°54' E 010°35'716.2
2018-Sep-17 18:03N 59°02' E 010°37'116.3
2018-Sep-17 18:00N 59°02' E 010°37'816.4
2018-Sep-17 17:30N 59°11' E 010°38'817.0
2018-Sep-17 17:03N 59°18' E 010°36'116.9
2018-Sep-17 17:00N 59°19' E 010°35'816.7
2018-Sep-17 16:31N 59°27' E 010°33'716.4
2018-Sep-17 16:03N 59°34' E 010°38'116.6
2018-Sep-17 16:00N 59°35' E 010°38'714.1
2018-Sep-17 15:30N 59°42' E 010°35'715.7
2018-Sep-17 15:03N 59°49' E 010°34'116.6
2018-Sep-17 15:00N 59°50' E 010°35'612.9
2018-Sep-17 14:30N 59°54' E 010°44'0 0.5
2018-Sep-17 13:58N 59°54' E 010°45'0 0.0
2018-Sep-17 13:28N 59°54' E 010°45'0 0.0
2018-Sep-17 13:01N 59°54' E 010°45'0 0.0
2018-Sep-17 12:58N 59°54' E 010°45'0 0.0
2018-Sep-17 12:28N 59°54' E 010°45'0 0.0
2018-Sep-17 12:01N 59°54' E 010°45'0 0.0
2018-Sep-17 11:58N 59°54' E 010°45'0 0.0
2018-Sep-17 11:28N 59°54' E 010°45'0 0.0
2018-Sep-17 11:01N 59°54' E 010°45'0 0.0
2018-Sep-17 10:58N 59°54' E 010°45'0 0.0
2018-Sep-17 10:28N 59°54' E 010°45'0 0.0
2018-Sep-17 10:01N 59°54' E 010°45'0 0.0
2018-Sep-17 09:58N 59°54' E 010°45'0 0.0
2018-Sep-17 09:28N 59°54' E 010°45'0 0.0
2018-Sep-17 09:01N 59°54' E 010°45'0 0.0
2018-Sep-17 08:58N 59°54' E 010°45'0 0.0
2018-Sep-17 08:28N 59°54' E 010°45'0 0.0
2018-Sep-17 08:01N 59°54' E 010°45'0 0.0
2018-Sep-17 07:58N 59°54' E 010°45'0 0.4
2018-Sep-17 07:31N 59°54' E 010°45'512.0
2018-Sep-17 07:03N 59°50' E 010°36'116.0
2018-Sep-17 07:01N 59°50' E 010°36'714.9
2018-Sep-17 06:30N 59°42' E 010°36'613.2
2018-Sep-17 06:03N 59°37' E 010°38'115.6
2018-Sep-17 06:00N 59°36' E 010°38'815.2
2018-Sep-17 05:30N 59°28' E 010°35'715.6
2018-Sep-17 05:04N 59°21' E 010°35'115.9
2018-Sep-17 05:00N 59°21' E 010°36'816.0
2018-Sep-17 04:30N 59°13' E 010°38'715.7
2018-Sep-17 04:03N 59°06' E 010°41'115.2
2018-Sep-17 04:00N 59°05' E 010°41'815.2
2018-Sep-17 03:30N 58°57' E 010°42'714.9
2018-Sep-17 03:03N 58°51' E 010°43'114.9
2018-Sep-17 03:00N 58°50' E 010°43'815.1
2018-Sep-17 02:30N 58°42' E 010°45'715.1
2018-Sep-17 02:03N 58°36' E 010°48'115.0
2018-Sep-17 02:00N 58°35' E 010°49'815.3
2018-Sep-17 01:30N 58°28' E 010°53'815.9
2018-Sep-17 01:00N 58°20' E 010°56'816.8
2018-Sep-17 00:30N 58°12' E 011°01'716.5
2018-Sep-17 00:03N 58°05' E 011°06'116.2
2018-Sep-17 00:00N 58°04' E 011°06'816.1
2018-Sep-16 23:30N 57°57' E 011°11'715.9
2018-Sep-16 23:03N 57°50' E 011°14'116.1
2018-Sep-16 23:00N 57°49' E 011°15'815.7
2018-Sep-16 22:30N 57°42' E 011°21'715.4
2018-Sep-16 22:03N 57°35' E 011°24'115.8
2018-Sep-16 22:00N 57°34' E 011°25'816.1
2018-Sep-16 21:30N 57°27' E 011°29'715.9
2018-Sep-16 21:03N 57°20' E 011°33'116.1
2018-Sep-16 21:00N 57°19' E 011°34'816.5
2018-Sep-16 20:30N 57°11' E 011°38'816.8
2018-Sep-16 20:03N 57°04' E 011°43'117.7
2018-Sep-16 20:00N 57°03' E 011°43'3216.8
2018-Sep-16 18:06N 56°35' E 012°10'216.7
2018-Sep-16 17:58N 56°33' E 012°11'2517.0
2018-Sep-16 16:29N 56°10' E 012°29'717.2
2018-Sep-16 16:03N 56°04' E 012°38'117.4
2018-Sep-16 16:00N 56°03' E 012°39'816.8
2018-Sep-16 15:30N 55°55' E 012°44'716.0
2018-Sep-16 15:04N 55°48' E 012°43'115.2
2018-Sep-16 15:00N 55°48' E 012°43'7 6.4
2018-Sep-16 13:59N 55°42' E 012°36'0 0.0
2018-Sep-16 13:29N 55°42' E 012°36'0 0.0
2018-Sep-16 13:02N 55°42' E 012°36'0 0.0
2018-Sep-16 12:59N 55°42' E 012°36'0 0.0
2018-Sep-16 12:29N 55°42' E 012°36'0 0.0
2018-Sep-16 12:02N 55°42' E 012°36'0 0.0
2018-Sep-16 11:59N 55°42' E 012°36'0 0.0
2018-Sep-16 11:29N 55°42' E 012°36'0 0.0
2018-Sep-16 11:02N 55°42' E 012°36'0 0.0
2018-Sep-16 10:59N 55°42' E 012°36'0 0.0
2018-Sep-16 10:29N 55°42' E 012°36'0 0.0
2018-Sep-16 10:02N 55°42' E 012°36'0 0.0
2018-Sep-16 09:59N 55°42' E 012°36'0 0.0
2018-Sep-16 09:29N 55°42' E 012°36'0 0.0
2018-Sep-16 09:02N 55°42' E 012°36'0 0.0
2018-Sep-16 08:59N 55°42' E 012°36'0 0.0
2018-Sep-16 08:29N 55°42' E 012°36'0 0.0
2018-Sep-16 08:02N 55°42' E 012°36'0 0.0
2018-Sep-16 07:59N 55°42' E 012°36'0 0.8
2018-Sep-16 07:31N 55°42' E 012°36'4 9.4
2018-Sep-16 07:03N 55°46' E 012°41'115.4
2018-Sep-16 07:00N 55°46' E 012°41'815.0
2018-Sep-16 06:30N 55°54' E 012°39'715.9
2018-Sep-16 06:03N 56°01' E 012°40'117.1
2018-Sep-16 06:00N 56°02' E 012°39'816.4
2018-Sep-16 05:30N 56°08' E 012°30'716.0
2018-Sep-16 05:04N 56°15' E 012°24'116.5
2018-Sep-16 05:00N 56°15' E 012°24'6116.6
2018-Sep-16 01:21N 57°13' E 011°53'517.7
2018-Sep-16 01:03N 57°18' E 011°48'117.4
2018-Sep-16 01:01N 57°19' E 011°47'917.4
2018-Sep-16 00:30N 57°26' E 011°39'816.9
2018-Sep-16 00:03N 57°33' E 011°33'116.8
2018-Sep-16 00:00N 57°34' E 011°33'816.8
2018-Sep-15 23:31N 57°42' E 011°28'817.4
2018-Sep-15 23:04N 57°49' E 011°21'117.0
2018-Sep-15 23:01N 57°50' E 011°21'917.1
2018-Sep-15 22:30N 57°58' E 011°14'817.1
2018-Sep-15 22:04N 58°04' E 011°08'116.7
2018-Sep-15 22:00N 58°05' E 011°07'816.2
2018-Sep-15 21:30N 58°13' E 011°01'715.8
2018-Sep-15 21:04N 58°19' E 010°56'115.9
2018-Sep-15 21:01N 58°20' E 010°55'815.8
2018-Sep-15 20:30N 58°27' E 010°49'715.8
2018-Sep-15 20:03N 58°33' E 010°43'115.9
2018-Sep-15 20:00N 58°34' E 010°42'815.9
2018-Sep-15 19:31N 58°41' E 010°36'715.7
2018-Sep-15 19:04N 58°48' E 010°34'116.0
2018-Sep-15 19:01N 58°49' E 010°34'816.1
2018-Sep-15 18:31N 58°57' E 010°36'716.3
2018-Sep-15 18:03N 59°05' E 010°37'116.5
2018-Sep-15 18:01N 59°05' E 010°38'816.4
2018-Sep-15 17:30N 59°14' E 010°37'716.6
2018-Sep-15 17:04N 59°21' E 010°35'116.6
2018-Sep-15 17:01N 59°22' E 010°35'816.4
2018-Sep-15 16:31N 59°30' E 010°34'715.4
2018-Sep-15 16:03N 59°37' E 010°38'114.6
2018-Sep-15 16:01N 59°37' E 010°38'612.6
2018-Sep-15 15:30N 59°43' E 010°34'715.9
2018-Sep-15 15:03N 59°51' E 010°35'6 5.8
2018-Sep-15 14:01N 59°54' E 010°45'0 0.0
2018-Sep-15 13:58N 59°54' E 010°45'0 0.0
2018-Sep-15 13:28N 59°54' E 010°45'0 0.0
2018-Sep-15 13:01N 59°54' E 010°45'0 0.0
2018-Sep-15 12:58N 59°54' E 010°45'0 0.0
2018-Sep-15 12:28N 59°54' E 010°45'0 0.0
2018-Sep-15 12:01N 59°54' E 010°45'0 0.0
2018-Sep-15 11:58N 59°54' E 010°45'0 0.0
2018-Sep-15 11:28N 59°54' E 010°45'0 0.0
2018-Sep-15 11:01N 59°54' E 010°45'0 0.0
2018-Sep-15 10:58N 59°54' E 010°45'0 0.0
2018-Sep-15 10:28N 59°54' E 010°45'0 0.0
2018-Sep-15 10:01N 59°54' E 010°45'0 0.0
2018-Sep-15 09:58N 59°54' E 010°45'0 0.0
2018-Sep-15 09:28N 59°54' E 010°45'0 0.0
2018-Sep-15 09:01N 59°54' E 010°45'0 0.0
2018-Sep-15 08:58N 59°54' E 010°45'0 0.0
2018-Sep-15 08:28N 59°54' E 010°45'0 0.0
2018-Sep-15 08:01N 59°54' E 010°45'0 0.0
2018-Sep-15 07:58N 59°54' E 010°45'0 0.4
2018-Sep-15 07:29N 59°54' E 010°45'511.1
2018-Sep-15 07:03N 59°51' E 010°37'114.6
2018-Sep-15 07:00N 59°51' E 010°37'714.1
2018-Sep-15 06:31N 59°44' E 010°35'613.1
2018-Sep-15 06:04N 59°38' E 010°38'116.2
2018-Sep-15 06:01N 59°37' E 010°38'816.0
2018-Sep-15 05:30N 59°29' E 010°35'715.9
2018-Sep-15 05:04N 59°22' E 010°35'116.0
2018-Sep-15 05:00N 59°21' E 010°35'816.2
2018-Sep-15 04:30N 59°13' E 010°38'716.3
2018-Sep-15 04:03N 59°06' E 010°40'116.2
2018-Sep-15 04:01N 59°05' E 010°41'816.0
2018-Sep-15 03:31N 58°57' E 010°42'716.4
2018-Sep-15 03:03N 58°50' E 010°44'116.5
2018-Sep-15 03:01N 58°49' E 010°44'816.3
2018-Sep-15 02:31N 58°41' E 010°46'716.3
2018-Sep-15 02:03N 58°34' E 010°50'116.5
2018-Sep-15 02:00N 58°33' E 010°50'917.2
2018-Sep-15 01:30N 58°25' E 010°55'817.3
2018-Sep-15 01:03N 58°17' E 010°60'117.3
2018-Sep-15 01:00N 58°17' E 011°00'817.3
2018-Sep-15 00:30N 58°08' E 011°05'817.1
2018-Sep-15 00:03N 58°01' E 011°09'117.3
2018-Sep-15 00:00N 58°00' E 011°09'917.2
2018-Sep-14 23:30N 57°52' E 011°14'817.0
2018-Sep-14 23:03N 57°45' E 011°18'116.5
2018-Sep-14 23:00N 57°44' E 011°19'816.5
2018-Sep-14 22:30N 57°36' E 011°25'716.3
2018-Sep-14 22:03N 57°30' E 011°30'116.1
2018-Sep-14 22:00N 57°29' E 011°30'816.5
2018-Sep-14 21:30N 57°21' E 011°34'817.2
2018-Sep-14 21:03N 57°13' E 011°38'117.4
2018-Sep-14 21:00N 57°12' E 011°38'  
Track history (hours):
 
Tides and Currents Weather Stations Pressure Air Temp Water Temp Dewpoint Dewpoint Depression Visibility Wind Speed Wind Dir Waves Ship Positions

Crown Of Scandinavia

Last reported at 2018-Sep-24 20:30 UTC. Time now 2018-Sep-24 21:01 UTC.
Position N 57°03' E 011°43'.

Length 171 m; draft 6.3 m.

Type: Ship. MMSI: 219592000.

Date/timePositionNaut miles runAvg speedWind from/ knotsBaromVisibWave heightAir tempDewpointWater temp
2018-Sep-24 20:30N 57°03' E 011°43'817.5
2018-Sep-24 20:03N 56°56' E 011°49'4716.0
2018-Sep-24 17:06N 56°13' E 012°24'116.2
2018-Sep-24 17:03N 56°12' E 012°24'116.4
2018-Sep-24 17:00N 56°12' E 012°25'815.9
2018-Sep-24 16:30N 56°06' E 012°35'714.6
2018-Sep-24 16:03N 56°00' E 012°41'114.1
2018-Sep-24 16:01N 55°59' E 012°41'714.0
2018-Sep-24 15:31N 55°53' E 012°45'714.5
2018-Sep-24 15:04N 55°46' E 012°42'115.0
2018-Sep-24 15:00N 55°46' E 012°41'5 8.4
2018-Sep-24 14:28N 55°42' E 012°36'0 0.0
2018-Sep-24 13:58N 55°42' E 012°36'0 0.0
2018-Sep-24 13:31N 55°42' E 012°36'0 0.0
2018-Sep-24 13:01N 55°42' E 012°36'0 0.0
2018-Sep-24 12:58N 55°42' E 012°36'0 0.0
2018-Sep-24 12:31N 55°42' E 012°36'0 0.0
2018-Sep-24 12:01N 55°42' E 012°36'0 0.0
2018-Sep-24 11:58N 55°42' E 012°36'0 0.0
2018-Sep-24 11:28N 55°42' E 012°36'0 0.0
2018-Sep-24 11:01N 55°42' E 012°36'0 0.0
2018-Sep-24 10:58N 55°42' E 012°36'0 0.0
2018-Sep-24 10:31N 55°42' E 012°36'0 0.0
2018-Sep-24 10:01N 55°42' E 012°36'0 0.0
2018-Sep-24 09:58N 55°42' E 012°36'0 0.0
2018-Sep-24 09:28N 55°42' E 012°36'0 0.0
2018-Sep-24 09:01N 55°42' E 012°36'0 0.0
2018-Sep-24 08:58N 55°42' E 012°36'0 0.0
2018-Sep-24 08:28N 55°42' E 012°36'0 0.0
2018-Sep-24 08:04N 55°42' E 012°36'0 0.0
2018-Sep-24 07:58N 55°42' E 012°36'1 1.9
2018-Sep-24 07:30N 55°43' E 012°37'612.5
2018-Sep-24 07:03N 55°47' E 012°42'116.6
2018-Sep-24 07:00N 55°48' E 012°42'816.2
2018-Sep-24 06:30N 55°56' E 012°39'817.3
2018-Sep-24 06:03N 56°04' E 012°37'117.9
2018-Sep-24 06:00N 56°05' E 012°36'816.8
2018-Sep-24 05:30N 56°11' E 012°27'716.0
2018-Sep-24 05:03N 56°18' E 012°23'5716.2
2018-Sep-24 01:32N 57°12' E 011°53'115.9
2018-Sep-24 01:27N 57°14' E 011°52'616.1
2018-Sep-24 01:03N 57°19' E 011°45'116.0
2018-Sep-24 01:00N 57°20' E 011°45'815.9
2018-Sep-24 00:30N 57°26' E 011°37'715.6
2018-Sep-24 00:03N 57°32' E 011°29'115.8
2018-Sep-24 00:00N 57°33' E 011°28'816.3
2018-Sep-23 23:30N 57°39' E 011°18'716.3
2018-Sep-23 23:03N 57°45' E 011°10'116.4
2018-Sep-23 23:00N 57°46' E 011°09'816.5
2018-Sep-23 22:30N 57°53' E 011°03'716.3
2018-Sep-23 22:03N 58°00' E 010°58'116.4
2018-Sep-23 22:00N 58°01' E 010°58'816.1
2018-Sep-23 21:30N 58°08' E 010°52'716.1
2018-Sep-23 21:03N 58°15' E 010°47'115.7
2018-Sep-23 21:00N 58°16' E 010°47'815.5
2018-Sep-23 20:30N 58°23' E 010°41'715.1
2018-Sep-23 20:03N 58°30' E 010°39'114.9
2018-Sep-23 20:00N 58°30' E 010°38'815.1
2018-Sep-23 19:30N 58°38' E 010°36'715.5
2018-Sep-23 19:03N 58°45' E 010°35'116.0
2018-Sep-23 19:00N 58°46' E 010°35'816.4
2018-Sep-23 18:31N 58°54' E 010°36'716.6
2018-Sep-23 18:03N 59°01' E 010°37'117.3
2018-Sep-23 18:00N 59°02' E 010°37'917.8
2018-Sep-23 17:30N 59°11' E 010°38'818.0
2018-Sep-23 17:03N 59°19' E 010°36'118.1
2018-Sep-23 17:00N 59°20' E 010°35'917.8
2018-Sep-23 16:30N 59°29' E 010°34'816.9
2018-Sep-23 16:03N 59°36' E 010°38'116.7
2018-Sep-23 16:00N 59°37' E 010°38'612.9
2018-Sep-23 15:30N 59°43' E 010°34'716.1
2018-Sep-23 15:04N 59°50' E 010°35'116.6
2018-Sep-23 15:00N 59°51' E 010°36'510.6
2018-Sep-23 14:30N 59°54' E 010°45'0 0.0
2018-Sep-23 13:30N 59°54' E 010°45'0 0.0
2018-Sep-23 13:03N 59°54' E 010°45'0 0.0
2018-Sep-23 13:00N 59°54' E 010°45'0 0.0
2018-Sep-23 12:30N 59°54' E 010°45'0 0.0
2018-Sep-23 12:04N 59°54' E 010°45'0 0.0
2018-Sep-23 12:01N 59°54' E 010°45'0 0.0
2018-Sep-23 11:30N 59°54' E 010°45'0 0.0
2018-Sep-23 11:03N 59°54' E 010°45'0 0.0
2018-Sep-23 11:00N 59°54' E 010°45'0 0.0
2018-Sep-23 10:31N 59°54' E 010°45'0 0.0
2018-Sep-23 10:03N 59°54' E 010°45'0 0.0
2018-Sep-23 10:00N 59°54' E 010°45'0 0.0
2018-Sep-23 09:30N 59°54' E 010°45'0 0.0
2018-Sep-23 09:03N 59°54' E 010°45'0 0.0
2018-Sep-23 09:00N 59°54' E 010°45'0 0.5
2018-Sep-23 08:30N 59°54' E 010°44'613.8
2018-Sep-23 08:03N 59°50' E 010°35'116.9
2018-Sep-23 08:00N 59°49' E 010°35'815.6
2018-Sep-23 07:30N 59°42' E 010°36'714.4
2018-Sep-23 07:03N 59°35' E 010°38'116.6
2018-Sep-23 07:00N 59°34' E 010°38'816.7
2018-Sep-23 06:31N 59°26' E 010°34'716.1
2018-Sep-23 06:03N 59°19' E 010°37'116.1
2018-Sep-23 06:00N 59°18' E 010°37'816.2
2018-Sep-23 05:30N 59°10' E 010°39'715.9
2018-Sep-23 05:04N 59°03' E 010°41'116.3
2018-Sep-23 05:01N 59°02' E 010°41'816.3
2018-Sep-23 04:31N 58°54' E 010°43'816.6
2018-Sep-23 04:03N 58°47' E 010°45'117.7
2018-Sep-23 04:00N 58°46' E 010°45'917.8
2018-Sep-23 03:30N 58°37' E 010°49'817.7
2018-Sep-23 03:04N 58°30' E 010°54'118.4
2018-Sep-23 03:00N 58°29' E 010°55'918.2
2018-Sep-23 02:30N 58°20' E 010°59'817.9
2018-Sep-23 02:03N 58°13' E 011°04'117.8
2018-Sep-23 02:00N 58°12' E 011°04'917.9
2018-Sep-23 01:31N 58°03' E 011°08'817.1
2018-Sep-23 01:03N 57°56' E 011°12'116.8
2018-Sep-23 01:00N 57°55' E 011°13'816.3
2018-Sep-23 00:30N 57°47' E 011°17'716.4
2018-Sep-23 00:04N 57°40' E 011°21'116.7
2018-Sep-23 00:01N 57°39' E 011°22'816.9
2018-Sep-22 23:30N 57°31' E 011°26'817.1
2018-Sep-22 23:04N 57°24' E 011°31'117.3
2018-Sep-22 23:01N 57°23' E 011°31'917.5
2018-Sep-22 22:30N 57°15' E 011°36'817.8
2018-Sep-22 22:04N 57°07' E 011°41'117.9
2018-Sep-22 22:01N 57°06' E 011°42'6115.8
2018-Sep-22 18:10N 56°10' E 012°26'215.2
2018-Sep-22 18:03N 56°09' E 012°28'115.5
2018-Sep-22 18:00N 56°09' E 012°29'815.7
2018-Sep-22 17:31N 56°03' E 012°39'714.7
2018-Sep-22 17:03N 55°57' E 012°43'117.3
2018-Sep-22 17:00N 55°56' E 012°43'815.4
2018-Sep-22 16:31N 55°49' E 012°43'614.4
2018-Sep-22 16:04N 55°43' E 012°38'0 8.5
2018-Sep-22 16:00N 55°43' E 012°37'1 1.8
2018-Sep-22 15:30N 55°42' E 012°36'0 0.0
2018-Sep-22 15:02N 55°42' E 012°36'0 0.0
2018-Sep-22 14:59N 55°42' E 012°36'0 0.5
2018-Sep-22 14:30N 55°42' E 012°36'510.5
2018-Sep-22 14:00N 55°47' E 012°42'816.3
2018-Sep-22 13:30N 55°55' E 012°39'919.9
2018-Sep-22 13:03N 56°04' E 012°38'121.1
2018-Sep-22 13:00N 56°04' E 012°37'1019.3
2018-Sep-22 12:30N 56°12' E 012°26'6219.2
2018-Sep-22 09:16N 57°11' E 011°54'419.6
2018-Sep-22 09:03N 57°15' E 011°51'119.6
2018-Sep-22 09:00N 57°16' E 011°50'1019.7
2018-Sep-22 08:30N 57°24' E 011°39'919.6
2018-Sep-22 08:03N 57°32' E 011°30'119.5
2018-Sep-22 08:00N 57°32' E 011°29'1019.3
2018-Sep-22 07:30N 57°41' E 011°20'919.4
2018-Sep-22 07:03N 57°48' E 011°11'119.2
2018-Sep-22 07:00N 57°49' E 011°10'918.1
2018-Sep-22 06:30N 57°56' E 010°60'817.0
2018-Sep-22 06:03N 58°02' E 010°50'117.0
2018-Sep-22 06:00N 58°02' E 010°49'816.9
2018-Sep-22 05:30N 58°08' E 010°38'715.3
2018-Sep-22 05:03N 58°13' E 010°29'115.3
2018-Sep-22 05:00N 58°14' E 010°28'714.2
2018-Sep-22 04:29N 58°20' E 010°19'612.8
2018-Sep-22 04:02N 58°25' E 010°15'112.4
2018-Sep-22 03:59N 58°25' E 010°15'611.2
2018-Sep-22 03:30N 58°31' E 010°14'511.2
2018-Sep-22 03:03N 58°36' E 010°14'111.3
2018-Sep-22 03:00N 58°36' E 010°14'510.3
2018-Sep-22 02:31N 58°42' E 010°14'510.6
2018-Sep-22 02:03N 58°46' E 010°15'110.0
2018-Sep-22 02:00N 58°47' E 010°15'5 9.3
2018-Sep-22 01:30N 58°51' E 010°18'4 8.0
2018-Sep-22 01:04N 58°54' E 010°23'0 8.1
2018-Sep-22 01:00N 58°54' E 010°24'4 8.3
2018-Sep-22 00:30N 58°57' E 010°29'4 8.0
2018-Sep-22 00:03N 58°60' E 010°33'0 9.3
2018-Sep-22 00:00N 59°00' E 010°34'4 7.4
2018-Sep-21 23:30N 59°04' E 010°37'4 8.5
2018-Sep-21 23:03N 59°08' E 010°38'0 8.8
2018-Sep-21 23:00N 59°08' E 010°38'4 7.0
2018-Sep-21 22:30N 59°11' E 010°38'4 8.5
2018-Sep-21 22:03N 59°15' E 010°37'0 9.2
2018-Sep-21 22:00N 59°16' E 010°36'4 7.7
2018-Sep-21 21:30N 59°19' E 010°35'3 6.0
2018-Sep-21 21:03N 59°22' E 010°34'0 5.8
2018-Sep-21 21:00N 59°22' E 010°34'3 6.1
2018-Sep-21 20:30N 59°25' E 010°33'2 5.2
2018-Sep-21 20:04N 59°28' E 010°33'0 5.0
2018-Sep-21 20:00N 59°28' E 010°33'2 4.8
2018-Sep-21 19:30N 59°30' E 010°35'2 4.6
2018-Sep-21 19:03N 59°32' E 010°36'0 4.9
2018-Sep-21 19:00N 59°32' E 010°36'3 6.1
2018-Sep-21 18:30N 59°35' E 010°38'2 5.1
2018-Sep-21 18:03N 59°38' E 010°38'0 5.0
2018-Sep-21 18:00N 59°38' E 010°37'4 7.7
2018-Sep-21 17:30N 59°42' E 010°36'3 7.8
2018-Sep-21 17:04N 59°45' E 010°33'0 3.4
2018-Sep-21 17:01N 59°45' E 010°33'2 3.7
2018-Sep-21 16:30N 59°47' E 010°34'2 4.3
2018-Sep-21 16:04N 59°49' E 010°34'0 4.2
2018-Sep-21 16:00N 59°49' E 010°34'3 5.6
2018-Sep-21 15:30N 59°51' E 010°37'4 8.9
2018-Sep-21 15:03N 59°54' E 010°43'111.3
2018-Sep-21 15:01N 59°54' E 010°44'0 0.7
2018-Sep-21 14:28N 59°54' E 010°45'0 0.0
2018-Sep-21 13:28N 59°54' E 010°45'0 0.0
2018-Sep-21 13:01N 59°54' E 010°45'0 0.0
2018-Sep-21 12:58N 59°54' E 010°45'0 0.0
2018-Sep-21 12:28N 59°54' E 010°45'0 0.0
2018-Sep-21 12:01N 59°54' E 010°45'0 0.0
2018-Sep-21 11:58N 59°54' E 010°45'0 0.0
2018-Sep-21 11:28N 59°54' E 010°45'0 0.0
2018-Sep-21 11:01N 59°54' E 010°45'0 0.0
2018-Sep-21 10:58N 59°54' E 010°45'0 0.0
2018-Sep-21 10:28N 59°54' E 010°45'0 0.0
2018-Sep-21 10:01N 59°54' E 010°45'0 0.0
2018-Sep-21 09:58N 59°54' E 010°45'0 0.0
2018-Sep-21 09:28N 59°54' E 010°45'0 0.0
2018-Sep-21 09:01N 59°54' E 010°45'0 0.0
2018-Sep-21 08:58N 59°54' E 010°45'0 0.0
2018-Sep-21 08:28N 59°54' E 010°45'0 0.0
2018-Sep-21 08:01N 59°54' E 010°45'0 0.0
2018-Sep-21 07:58N 59°54' E 010°45'1 1.2
2018-Sep-21 07:30N 59°54' E 010°44'613.4
2018-Sep-21 07:03N 59°50' E 010°36'115.1
2018-Sep-21 07:00N 59°49' E 010°35'714.9
2018-Sep-21 06:31N 59°42' E 010°36'614.3
2018-Sep-21 06:03N 59°35' E 010°38'115.8
2018-Sep-21 06:01N 59°34' E 010°38'815.8
2018-Sep-21 05:30N 59°27' E 010°34'716.1
2018-Sep-21 05:03N 59°20' E 010°36'116.0
2018-Sep-21 05:00N 59°19' E 010°36'816.3
2018-Sep-21 04:31N 59°11' E 010°39'715.9
2018-Sep-21 04:04N 59°04' E 010°40'115.7
2018-Sep-21 04:01N 59°03' E 010°41'815.9
2018-Sep-21 03:31N 58°55' E 010°42'716.1
2018-Sep-21 03:04N 58°48' E 010°44'116.1
2018-Sep-21 03:01N 58°47' E 010°44'816.2
2018-Sep-21 02:30N 58°39' E 010°46'716.4
2018-Sep-21 02:04N 58°32' E 010°50'116.5
2018-Sep-21 02:00N 58°31' E 010°51'817.0
2018-Sep-21 01:31N 58°23' E 010°56'816.9
2018-Sep-21 01:04N 58°16' E 010°60'116.7
2018-Sep-21 01:00N 58°15' E 011°00'816.6
2018-Sep-21 00:31N 58°07' E 011°05'816.9
2018-Sep-21 00:04N 57°60' E 011°09'116.8
2018-Sep-21 00:00N 57°59' E 011°09'816.5
2018-Sep-20 23:30N 57°51' E 011°14'716.2
2018-Sep-20 23:04N 57°44' E 011°18'116.1
2018-Sep-20 23:01N 57°43' E 011°19'816.3
2018-Sep-20 22:31N 57°36' E 011°24'716.3
2018-Sep-20 22:04N 57°29' E 011°28'116.5
2018-Sep-20 22:01N 57°28' E 011°29'816.3
2018-Sep-20 21:31N 57°20' E 011°33'716.6
2018-Sep-20 21:03N 57°13' E 011°37'116.7
2018-Sep-20 21:01N 57°12' E 011°38'816.5
2018-Sep-20 20:31N 57°05' E 011°43'816.3
2018-Sep-20 20:00N 56°57' E 011°50'5015.9
2018-Sep-20 16:51N 56°11' E 012°28'515.8
2018-Sep-20 16:30N 56°07' E 012°33'715.1
2018-Sep-20 16:04N 56°01' E 012°40'115.2
2018-Sep-20 16:01N 56°01' E 012°41'815.3
2018-Sep-20 15:31N 55°54' E 012°46'715.7
2018-Sep-20 15:03N 55°47' E 012°42'115.1
2018-Sep-20 15:01N 55°46' E 012°42'5 5.2
2018-Sep-20 14:01N 55°42' E 012°36'0 0.0
2018-Sep-20 13:52N 55°42' E 012°36'0 0.0
2018-Sep-20 13:28N 55°42' E 012°36'0 0.0
2018-Sep-20 12:58N 55°42' E 012°36'0 0.0
2018-Sep-20 12:16N 55°42' E 012°36'0 0.0
2018-Sep-20 12:01N 55°42' E 012°36'0 0.0
2018-Sep-20 11:55N 55°42' E 012°36'0 0.0
2018-Sep-20 11:28N 55°42' E 012°36'0 0.0
2018-Sep-20 10:52N 55°42' E 012°36'0 0.0
2018-Sep-20 10:28N 55°42' E 012°36'0 0.0
2018-Sep-20 10:01N 55°42' E 012°36'0 0.0
2018-Sep-20 09:55N 55°42' E 012°36'0 0.0
2018-Sep-20 09:25N 55°42' E 012°36'0 0.0
2018-Sep-20 09:01N 55°42' E 012°36'0 0.0
2018-Sep-20 08:58N 55°42' E 012°36'0 0.0
2018-Sep-20 08:28N 55°42' E 012°36'0 0.0
2018-Sep-20 08:01N 55°42' E 012°36'0 0.0
2018-Sep-20 07:49N 55°42' E 012°36'0 1.0
2018-Sep-20 07:30N 55°42' E 012°36'613.1
2018-Sep-20 07:03N 55°47' E 012°42'115.7
2018-Sep-20 07:00N 55°48' E 012°42'815.4
2018-Sep-20 06:31N 55°56' E 012°39'715.5
2018-Sep-20 06:04N 56°03' E 012°39'116.0
2018-Sep-20 06:00N 56°03' E 012°39'816.2
2018-Sep-20 05:31N 56°09' E 012°29'715.4
2018-Sep-20 05:03N 56°16' E 012°25'115.2
2018-Sep-20 04:59N 56°17' E 012°24'5716.7
2018-Sep-20 01:34N 57°12' E 011°54'317.9
2018-Sep-20 01:25N 57°14' E 011°52'617.7
2018-Sep-20 01:04N 57°20' E 011°47'117.6
2018-Sep-20 01:01N 57°20' E 011°46'918.1
2018-Sep-20 00:31N 57°28' E 011°38'817.6
2018-Sep-20 00:04N 57°36' E 011°32'117.7
2018-Sep-20 00:01N 57°36' E 011°32'917.5
2018-Sep-19 23:31N 57°45' E 011°26'817.1
2018-Sep-19 23:04N 57°52' E 011°21'116.8
2018-Sep-19 23:01N 57°53' E 011°20'816.0
2018-Sep-19 22:31N 57°60' E 011°14'715.6
2018-Sep-19 22:03N 58°06' E 011°08'116.0
2018-Sep-19 22:00N 58°07' E 011°08'815.5
2018-Sep-19 21:30N 58°14' E 011°02'714.9
2018-Sep-19 21:04N 58°20' E 010°58'114.9
2018-Sep-19 21:00N 58°21' E 010°58'714.6
2018-Sep-19 20:30N 58°28' E 010°54'714.6
2018-Sep-19 20:03N 58°35' E 010°51'114.6
2018-Sep-19 20:00N 58°35' E 010°50'715.0
2018-Sep-19 19:31N 58°43' E 010°46'715.5
2018-Sep-19 19:04N 58°49' E 010°43'115.7
2018-Sep-19 19:01N 58°50' E 010°43'815.7
2018-Sep-19 18:31N 58°58' E 010°41'715.6
2018-Sep-19 18:04N 59°05' E 010°40'115.9
2018-Sep-19 18:01N 59°06' E 010°40'816.1
2018-Sep-19 17:31N 59°14' E 010°38'716.1
2018-Sep-19 17:04N 59°21' E 010°35'116.2
2018-Sep-19 17:01N 59°22' E 010°35'815.8
2018-Sep-19 16:31N 59°29' E 010°34'716.1
2018-Sep-19 16:04N 59°36' E 010°38'116.3
2018-Sep-19 16:01N 59°37' E 010°38'713.7
2018-Sep-19 15:30N 59°44' E 010°33'715.3
2018-Sep-19 15:03N 59°51' E 010°35'115.9
2018-Sep-19 15:00N 59°51' E 010°36'5 5.2
2018-Sep-19 14:01N 59°54' E 010°45'0 0.0
2018-Sep-19 13:28N 59°54' E 010°45'0 0.0
2018-Sep-19 13:01N 59°54' E 010°45'0 0.0
2018-Sep-19 12:58N 59°54' E 010°45'0 0.0
2018-Sep-19 12:28N 59°54' E 010°45'0 0.0
2018-Sep-19 12:01N 59°54' E 010°45'0 0.0
2018-Sep-19 11:58N 59°54' E 010°45'0 0.0
2018-Sep-19 11:28N 59°54' E 010°45'0 0.0
2018-Sep-19 11:01N 59°54' E 010°45'0 0.0
2018-Sep-19 10:58N 59°54' E 010°45'0 0.0
2018-Sep-19 10:28N 59°54' E 010°45'0 0.0
2018-Sep-19 10:01N 59°54' E 010°45'0 0.0
2018-Sep-19 09:58N 59°54' E 010°45'0 0.0
2018-Sep-19 09:28N 59°54' E 010°45'0 0.0
2018-Sep-19 09:01N 59°54' E 010°45'0 0.0
2018-Sep-19 08:58N 59°54' E 010°45'0 0.0
2018-Sep-19 08:28N 59°54' E 010°45'0 0.0
2018-Sep-19 08:01N 59°54' E 010°45'0 0.0
2018-Sep-19 07:58N 59°54' E 010°45'0 0.9
2018-Sep-19 07:30N 59°54' E 010°44'612.8
2018-Sep-19 07:03N 59°50' E 010°36'114.6
2018-Sep-19 07:01N 59°49' E 010°35'714.1
2018-Sep-19 06:30N 59°42' E 010°36'613.6
2018-Sep-19 06:03N 59°36' E 010°38'116.5
2018-Sep-19 06:01N 59°35' E 010°38'816.1
2018-Sep-19 05:31N 59°28' E 010°34'715.9
2018-Sep-19 05:04N 59°21' E 010°36'116.9
2018-Sep-19 05:01N 59°20' E 010°36'816.6
2018-Sep-19 04:31N 59°12' E 010°39'716.0
2018-Sep-19 04:04N 59°04' E 010°41'115.5
2018-Sep-19 04:01N 59°04' E 010°41'815.5
2018-Sep-19 03:31N 58°56' E 010°42'715.1
2018-Sep-19 03:03N 58°49' E 010°44'114.8
2018-Sep-19 03:01N 58°48' E 010°44'714.9
2018-Sep-19 02:31N 58°41' E 010°47'715.7
2018-Sep-19 02:04N 58°35' E 010°51'115.7
2018-Sep-19 02:01N 58°34' E 010°52'816.2
2018-Sep-19 01:30N 58°26' E 010°57'716.0
2018-Sep-19 01:04N 58°19' E 011°01'116.0
2018-Sep-19 01:00N 58°18' E 011°01'815.8
2018-Sep-19 00:31N 58°11' E 011°05'715.8
2018-Sep-19 00:04N 58°04' E 011°08'115.6
2018-Sep-19 00:01N 58°03' E 011°09'815.5
2018-Sep-18 23:31N 57°56' E 011°14'715.9
2018-Sep-18 23:04N 57°49' E 011°18'115.5
2018-Sep-18 23:01N 57°48' E 011°18'815.4
2018-Sep-18 22:31N 57°41' E 011°23'715.1
2018-Sep-18 22:03N 57°34' E 011°25'115.4
2018-Sep-18 22:00N 57°34' E 011°25'815.4
2018-Sep-18 21:31N 57°26' E 011°29'715.7
2018-Sep-18 21:04N 57°20' E 011°33'115.7
2018-Sep-18 21:01N 57°19' E 011°34'816.3
2018-Sep-18 20:31N 57°11' E 011°38'716.7
2018-Sep-18 20:04N 57°04' E 011°43'116.7
2018-Sep-18 20:01N 57°03' E 011°44'816.6
2018-Sep-18 19:30N 56°56' E 011°51'816.4
2018-Sep-18 19:01N 56°49' E 011°59'116.7
2018-Sep-18 18:59N 56°49' E 011°59'916.5
2018-Sep-18 18:26N 56°40' E 012°05'616.1
2018-Sep-18 18:02N 56°34' E 012°10'016.2
2018-Sep-18 18:01N 56°34' E 012°11'816.5
2018-Sep-18 17:30N 56°26' E 012°17'816.5
2018-Sep-18 17:03N 56°19' E 012°22'117.0
2018-Sep-18 16:59N 56°18' E 012°22'817.2
2018-Sep-18 16:31N 56°11' E 012°28'918.9
2018-Sep-18 16:03N 56°04' E 012°38'118.3
2018-Sep-18 16:00N 56°04' E 012°39'817.1
2018-Sep-18 15:31N 55°55' E 012°44'817.0
2018-Sep-18 15:04N 55°48' E 012°43'116.9
2018-Sep-18 15:00N 55°47' E 012°42'6 6.3
2018-Sep-18 14:03N 55°42' E 012°36'0 0.0
2018-Sep-18 14:00N 55°42' E 012°36'0 0.0
2018-Sep-18 13:30N 55°42' E 012°36'0 0.0
2018-Sep-18 13:03N 55°42' E 012°36'0 0.0
2018-Sep-18 13:00N 55°42' E 012°36'0 0.7
2018-Sep-18 12:30N 55°42' E 012°36'613.7
2018-Sep-18 12:04N 55°47' E 012°42'115.9
2018-Sep-18 12:01N 55°48' E 012°43'510.2
2018-Sep-18 11:31N 55°53' E 012°44'511.4
2018-Sep-18 11:03N 55°48' E 012°45'117.2
2018-Sep-18 11:00N 55°47' E 012°44'713.6
2018-Sep-18 10:30N 55°42' E 012°36'0 0.1
2018-Sep-18 09:46N 55°42' E 012°36'0 0.0
2018-Sep-18 09:25N 55°42' E 012°36'0 0.0
2018-Sep-18 08:58N 55°42' E 012°36'0 0.0
2018-Sep-18 08:22N 55°42' E 012°36'0 0.0
2018-Sep-18 08:01N 55°42' E 012°36'0 0.0
2018-Sep-18 07:52N 55°42' E 012°36'0 0.8
2018-Sep-18 07:31N 55°42' E 012°36'612.5
2018-Sep-18 07:03N 55°47' E 012°42'115.6
2018-Sep-18 07:00N 55°48' E 012°42'815.0
2018-Sep-18 06:31N 55°55' E 012°39'715.4
2018-Sep-18 06:04N 56°02' E 012°39'114.7
2018-Sep-18 06:00N 56°03' E 012°39'815.4
2018-Sep-18 05:30N 56°08' E 012°29'715.5
2018-Sep-18 05:03N 56°15' E 012°25'115.5
2018-Sep-18 05:00N 56°16' E 012°25'815.7
2018-Sep-18 04:30N 56°23' E 012°21'715.2
2018-Sep-18 04:03N 56°30' E 012°17'116.5
2018-Sep-18 04:00N 56°30' E 012°16'816.5
2018-Sep-18 03:30N 56°38' E 012°12'816.5
2018-Sep-18 03:00N 56°46' E 012°08'816.5
2018-Sep-18 02:30N 56°54' E 012°06'816.4
2018-Sep-18 02:00N 57°02' E 011°59'1216.5
2018-Sep-18 01:17N 57°13' E 011°53'417.1
2018-Sep-18 01:03N 57°16' E 011°49'117.1
2018-Sep-18 01:00N 57°17' E 011°48'816.9
2018-Sep-18 00:30N 57°24' E 011°40'716.4
2018-Sep-18 00:03N 57°31' E 011°34'116.8
2018-Sep-18 00:00N 57°32' E 011°33'917.0
2018-Sep-17 23:31N 57°39' E 011°26'817.0
2018-Sep-17 23:03N 57°47' E 011°22'116.4
2018-Sep-17 23:00N 57°47' E 011°21'816.6
2018-Sep-17 22:30N 57°55' E 011°15'816.3
2018-Sep-17 22:03N 58°02' E 011°10'116.1
2018-Sep-17 22:00N 58°03' E 011°10'816.0
2018-Sep-17 21:30N 58°10' E 011°04'715.9
2018-Sep-17 21:03N 58°17' E 010°58'115.8
2018-Sep-17 21:00N 58°17' E 010°57'815.8
2018-Sep-17 20:29N 58°25' E 010°51'715.7
2018-Sep-17 20:03N 58°31' E 010°45'115.7
2018-Sep-17 20:00N 58°32' E 010°45'815.7
2018-Sep-17 19:30N 58°39' E 010°38'715.7
2018-Sep-17 19:03N 58°45' E 010°35'116.1
2018-Sep-17 19:00N 58°46' E 010°35'816.1
2018-Sep-17 18:30N 58°54' E 010°35'716.2
2018-Sep-17 18:03N 59°02' E 010°37'116.3
2018-Sep-17 18:00N 59°02' E 010°37'816.4
2018-Sep-17 17:30N 59°11' E 010°38'817.0
2018-Sep-17 17:03N 59°18' E 010°36'116.9
2018-Sep-17 17:00N 59°19' E 010°35'816.7
2018-Sep-17 16:31N 59°27' E 010°33'716.4
2018-Sep-17 16:03N 59°34' E 010°38'116.6
2018-Sep-17 16:00N 59°35' E 010°38'714.1
2018-Sep-17 15:30N 59°42' E 010°35'715.7
2018-Sep-17 15:03N 59°49' E 010°34'116.6
2018-Sep-17 15:00N 59°50' E 010°35'612.9
2018-Sep-17 14:30N 59°54' E 010°44'0 0.5
2018-Sep-17 13:58N 59°54' E 010°45'0 0.0
2018-Sep-17 13:28N 59°54' E 010°45'0 0.0
2018-Sep-17 13:01N 59°54' E 010°45'0 0.0
2018-Sep-17 12:58N 59°54' E 010°45'0 0.0
2018-Sep-17 12:28N 59°54' E 010°45'0 0.0
2018-Sep-17 12:01N 59°54' E 010°45'0 0.0
2018-Sep-17 11:58N 59°54' E 010°45'0 0.0
2018-Sep-17 11:28N 59°54' E 010°45'0 0.0
2018-Sep-17 11:01N 59°54' E 010°45'0 0.0
2018-Sep-17 10:58N 59°54' E 010°45'0 0.0
2018-Sep-17 10:28N 59°54' E 010°45'0 0.0
2018-Sep-17 10:01N 59°54' E 010°45'0 0.0
2018-Sep-17 09:58N 59°54' E 010°45'0 0.0
2018-Sep-17 09:28N 59°54' E 010°45'0 0.0
2018-Sep-17 09:01N 59°54' E 010°45'0 0.0
2018-Sep-17 08:58N 59°54' E 010°45'0 0.0
2018-Sep-17 08:28N 59°54' E 010°45'0 0.0
2018-Sep-17 08:01N 59°54' E 010°45'0 0.0
2018-Sep-17 07:58N 59°54' E 010°45'0 0.4
2018-Sep-17 07:31N 59°54' E 010°45'512.0
2018-Sep-17 07:03N 59°50' E 010°36'116.0
2018-Sep-17 07:01N 59°50' E 010°36'714.9
2018-Sep-17 06:30N 59°42' E 010°36'613.2
2018-Sep-17 06:03N 59°37' E 010°38'115.6
2018-Sep-17 06:00N 59°36' E 010°38'815.2
2018-Sep-17 05:30N 59°28' E 010°35'715.6
2018-Sep-17 05:04N 59°21' E 010°35'115.9
2018-Sep-17 05:00N 59°21' E 010°36'816.0
2018-Sep-17 04:30N 59°13' E 010°38'715.7
2018-Sep-17 04:03N 59°06' E 010°41'115.2
2018-Sep-17 04:00N 59°05' E 010°41'815.2
2018-Sep-17 03:30N 58°57' E 010°42'714.9
2018-Sep-17 03:03N 58°51' E 010°43'114.9
2018-Sep-17 03:00N 58°50' E 010°43'815.1
2018-Sep-17 02:30N 58°42' E 010°45'715.1
2018-Sep-17 02:03N 58°36' E 010°48'115.0
2018-Sep-17 02:00N 58°35' E 010°49'815.3
2018-Sep-17 01:30N 58°28' E 010°53'815.9
2018-Sep-17 01:00N 58°20' E 010°56'816.8
2018-Sep-17 00:30N 58°12' E 011°01'716.5
2018-Sep-17 00:03N 58°05' E 011°06'116.2
2018-Sep-17 00:00N 58°04' E 011°06'816.1
2018-Sep-16 23:30N 57°57' E 011°11'715.9
2018-Sep-16 23:03N 57°50' E 011°14'116.1
2018-Sep-16 23:00N 57°49' E 011°15'815.7
2018-Sep-16 22:30N 57°42' E 011°21'715.4
2018-Sep-16 22:03N 57°35' E 011°24'115.8
2018-Sep-16 22:00N 57°34' E 011°25'816.1
2018-Sep-16 21:30N 57°27' E 011°29'715.9
2018-Sep-16 21:03N 57°20' E 011°33'116.1
2018-Sep-16 21:00N 57°19' E 011°34'816.5
2018-Sep-16 20:30N 57°11' E 011°38'816.8
2018-Sep-16 20:03N 57°04' E 011°43'117.7
2018-Sep-16 20:00N 57°03' E 011°43'3216.8
2018-Sep-16 18:06N 56°35' E 012°10'216.7
2018-Sep-16 17:58N 56°33' E 012°11'2517.0
2018-Sep-16 16:29N 56°10' E 012°29'717.2
2018-Sep-16 16:03N 56°04' E 012°38'117.4
2018-Sep-16 16:00N 56°03' E 012°39'816.8
2018-Sep-16 15:30N 55°55' E 012°44'716.0
2018-Sep-16 15:04N 55°48' E 012°43'115.2
2018-Sep-16 15:00N 55°48' E 012°43'7 6.4
2018-Sep-16 13:59N 55°42' E 012°36'0 0.0
2018-Sep-16 13:29N 55°42' E 012°36'0 0.0
2018-Sep-16 13:02N 55°42' E 012°36'0 0.0
2018-Sep-16 12:59N 55°42' E 012°36'0 0.0
2018-Sep-16 12:29N 55°42' E 012°36'0 0.0
2018-Sep-16 12:02N 55°42' E 012°36'0 0.0
2018-Sep-16 11:59N 55°42' E 012°36'0 0.0
2018-Sep-16 11:29N 55°42' E 012°36'0 0.0
2018-Sep-16 11:02N 55°42' E 012°36'0 0.0
2018-Sep-16 10:59N 55°42' E 012°36'0 0.0
2018-Sep-16 10:29N 55°42' E 012°36'0 0.0
2018-Sep-16 10:02N 55°42' E 012°36'0 0.0
2018-Sep-16 09:59N 55°42' E 012°36'0 0.0
2018-Sep-16 09:29N 55°42' E 012°36'0 0.0
2018-Sep-16 09:02N 55°42' E 012°36'0 0.0
2018-Sep-16 08:59N 55°42' E 012°36'0 0.0
2018-Sep-16 08:29N 55°42' E 012°36'0 0.0
2018-Sep-16 08:02N 55°42' E 012°36'0 0.0
2018-Sep-16 07:59N 55°42' E 012°36'0 0.8
2018-Sep-16 07:31N 55°42' E 012°36'4 9.4
2018-Sep-16 07:03N 55°46' E 012°41'115.4
2018-Sep-16 07:00N 55°46' E 012°41'815.0
2018-Sep-16 06:30N 55°54' E 012°39'715.9
2018-Sep-16 06:03N 56°01' E 012°40'117.1
2018-Sep-16 06:00N 56°02' E 012°39'816.4
2018-Sep-16 05:30N 56°08' E 012°30'716.0
2018-Sep-16 05:04N 56°15' E 012°24'116.5
2018-Sep-16 05:00N 56°15' E 012°24'6116.6
2018-Sep-16 01:21N 57°13' E 011°53'517.7
2018-Sep-16 01:03N 57°18' E 011°48'117.4
2018-Sep-16 01:01N 57°19' E 011°47'917.4
2018-Sep-16 00:30N 57°26' E 011°39'816.9
2018-Sep-16 00:03N 57°33' E 011°33'116.8
2018-Sep-16 00:00N 57°34' E 011°33'816.8
2018-Sep-15 23:31N 57°42' E 011°28'817.4
2018-Sep-15 23:04N 57°49' E 011°21'117.0
2018-Sep-15 23:01N 57°50' E 011°21'917.1
2018-Sep-15 22:30N 57°58' E 011°14'817.1
2018-Sep-15 22:04N 58°04' E 011°08'116.7
2018-Sep-15 22:00N 58°05' E 011°07'816.2
2018-Sep-15 21:30N 58°13' E 011°01'715.8
2018-Sep-15 21:04N 58°19' E 010°56'115.9
2018-Sep-15 21:01N 58°20' E 010°55'815.8
2018-Sep-15 20:30N 58°27' E 010°49'715.8
2018-Sep-15 20:03N 58°33' E 010°43'115.9
2018-Sep-15 20:00N 58°34' E 010°42'815.9
2018-Sep-15 19:31N 58°41' E 010°36'715.7
2018-Sep-15 19:04N 58°48' E 010°34'116.0
2018-Sep-15 19:01N 58°49' E 010°34'816.1
2018-Sep-15 18:31N 58°57' E 010°36'716.3
2018-Sep-15 18:03N 59°05' E 010°37'116.5
2018-Sep-15 18:01N 59°05' E 010°38'816.4
2018-Sep-15 17:30N 59°14' E 010°37'716.6
2018-Sep-15 17:04N 59°21' E 010°35'116.6
2018-Sep-15 17:01N 59°22' E 010°35'816.4
2018-Sep-15 16:31N 59°30' E 010°34'715.4
2018-Sep-15 16:03N 59°37' E 010°38'114.6
2018-Sep-15 16:01N 59°37' E 010°38'612.6
2018-Sep-15 15:30N 59°43' E 010°34'715.9
2018-Sep-15 15:03N 59°51' E 010°35'6 5.8
2018-Sep-15 14:01N 59°54' E 010°45'0 0.0
2018-Sep-15 13:58N 59°54' E 010°45'0 0.0
2018-Sep-15 13:28N 59°54' E 010°45'0 0.0
2018-Sep-15 13:01N 59°54' E 010°45'0 0.0
2018-Sep-15 12:58N 59°54' E 010°45'0 0.0
2018-Sep-15 12:28N 59°54' E 010°45'0 0.0
2018-Sep-15 12:01N 59°54' E 010°45'0 0.0
2018-Sep-15 11:58N 59°54' E 010°45'0 0.0
2018-Sep-15 11:28N 59°54' E 010°45'0 0.0
2018-Sep-15 11:01N 59°54' E 010°45'0 0.0
2018-Sep-15 10:58N 59°54' E 010°45'0 0.0
2018-Sep-15 10:28N 59°54' E 010°45'0 0.0
2018-Sep-15 10:01N 59°54' E 010°45'0 0.0
2018-Sep-15 09:58N 59°54' E 010°45'0 0.0
2018-Sep-15 09:28N 59°54' E 010°45'0 0.0
2018-Sep-15 09:01N 59°54' E 010°45'0 0.0
2018-Sep-15 08:58N 59°54' E 010°45'0 0.0
2018-Sep-15 08:28N 59°54' E 010°45'0 0.0
2018-Sep-15 08:01N 59°54' E 010°45'0 0.0
2018-Sep-15 07:58N 59°54' E 010°45'0 0.4
2018-Sep-15 07:29N 59°54' E 010°45'511.1
2018-Sep-15 07:03N 59°51' E 010°37'114.6
2018-Sep-15 07:00N 59°51' E 010°37'714.1
2018-Sep-15 06:31N 59°44' E 010°35'613.1
2018-Sep-15 06:04N 59°38' E 010°38'116.2
2018-Sep-15 06:01N 59°37' E 010°38'816.0
2018-Sep-15 05:30N 59°29' E 010°35'715.9
2018-Sep-15 05:04N 59°22' E 010°35'116.0
2018-Sep-15 05:00N 59°21' E 010°35'816.2
2018-Sep-15 04:30N 59°13' E 010°38'716.3
2018-Sep-15 04:03N 59°06' E 010°40'116.2
2018-Sep-15 04:01N 59°05' E 010°41'816.0
2018-Sep-15 03:31N 58°57' E 010°42'716.4
2018-Sep-15 03:03N 58°50' E 010°44'116.5
2018-Sep-15 03:01N 58°49' E 010°44'816.3
2018-Sep-15 02:31N 58°41' E 010°46'716.3
2018-Sep-15 02:03N 58°34' E 010°50'116.5
2018-Sep-15 02:00N 58°33' E 010°50'917.2
2018-Sep-15 01:30N 58°25' E 010°55'817.3
2018-Sep-15 01:03N 58°17' E 010°60'117.3
2018-Sep-15 01:00N 58°17' E 011°00'817.3
2018-Sep-15 00:30N 58°08' E 011°05'817.1
2018-Sep-15 00:03N 58°01' E 011°09'117.3
2018-Sep-15 00:00N 58°00' E 011°09'917.2
2018-Sep-14 23:30N 57°52' E 011°14'817.0
2018-Sep-14 23:03N 57°45' E 011°18'116.5
2018-Sep-14 23:00N 57°44' E 011°19'816.5
2018-Sep-14 22:30N 57°36' E 011°25'716.3
2018-Sep-14 22:03N 57°30' E 011°30'116.1
2018-Sep-14 22:00N 57°29' E 011°30'816.5
2018-Sep-14 21:30N 57°21' E 011°34'817.2
2018-Sep-14 21:03N 57°13' E 011°38'117.4
2018-Sep-14 21:00N 57°12' E 011°38'  

Dump ship's entire track history